X  Zatvori METAR Podaci o vazduhoplovstvu     LYNI Nis Airport
Temperatura
10°C Temperatura
10°C Tačka Rose
100% Vlaga



Vetar
1 MPH
2 KM/H
0 M/S
1 KTS



Tiho
S
Trenutna situacija

Delimično oblačno Delimično oblačno
Vazdušni pritisak 1014.92 (hPa) - 29.97 (inHg)
Vidljivost 6.2 (Milja) - 10 (km)
Aerodrom
Aerodromski kod. LYNI

Lokacija: Nis Airport
Udaljenost: 63 (mi)

Metar:
LYNI 030430Z VRB01KT 9999 SCT050 10/10 Q1015 NOSIG

Vreme: 03-10-2022 06:30 CEST